San Antonio, Texas
Traffic Map
Current Weather Conditions
San Antonio, Texas
Clear
Clear
21°
Feels Like: 21°
Wind Chill: 21° Ceiling: Unl
Heat Index: 21° Visibility: 10mi
Dew Point: 14° Wind: 5mph
Humidity: 62% Direction: 150° (SSE)
Pressure: 30.05in Gusts: 0mph
Raw Report DataKSKF 010058Z AUTO 15004KT 10SM CLR 21/14 A3005 RMK AO2 SLP172 T02110135 $
Traffic Incident Summary
Active as of:
Severity:
Category:
InformationThere was an issue retrieving the traffic information for this location. Please try a different location or try again shortly.
Advertisements
Track Severe Weather on mobile